首页
METAR-TAF:

METAR-TAF

机场 :

奥兰多国际机场

奥兰多, 佛罗里达州, 美国

纬度: 28-25-02N, 经度: 081-19-30W, 海拔: 29米

当前天气观测

该预报发布于1小时和9分钟前的13:53 UTC
风速6节,风向
温度 16°C
湿度 77%
气压 1025 hPa
能見度: 16.1公里
多云层高于6500英尺

METAR: KMCO 231353Z 01006KT 10SM BKN065 16/12 A3026 RMK AO2 SLP247 T01610117

时间: 10:02 (15:02 UTC)

预报

该预报发布于3小时和42分钟前的11:20 UTC
预报有效从23日的 12点(UTC)到 24日的 18点(UTC)
风速5节,风向
能見度: 10公里
散云层高于6000英尺
从 23日的 1500点(UTC)
风速8节,风向
能見度: 10公里
散云层高于5000英尺
散云层高于25000英尺
从 24日的 0000点(UTC)
风速6节,风向
能見度: 10公里
少量云层高于5000英尺
散云层高于25000英尺
从 24日的 1500点(UTC)
风速10节,风向南转南东
能見度: 10公里
散云层高于4000英尺
散云层高于25000英尺

TAF: KMCO 231120Z 2312/2418 36005KT P6SM SCT060 FM231500 09008KT P6SM SCT050 SCT250 FM240000 10006KT P6SM FEW050 SCT250 FM241500 15010KT P6SM SCT040 SCT250

超过4000个机场的气象观测和天气预报(METAR&TAF报告)。

可查询的气象台以黄色和红色小点在地图上表示。

将鼠标移到小点上方,可查看气象台名称。

然后点击查看天气观测和预报。

如需切换地图:点击带黑十字的绿色按钮放大地图;点击带横线的绿色按钮缩小地图;或者点击绿色箭头查看邻近地区的地图。


METAR-TAF: